sim
Sign-in with your pilot id or email,
or register
Callsign
Passwort

Schedule Details

Flight Number: DLH2478
Departure: Munich Airport (EDDM) at 14:55
Arrival: London Heathrow Airport (EGLL) at 17:05
Route: Lufthansa Passenger Schedule. Enter filed route here before submitting Pirep.

Weather Information
Getting current METAR information for EDDM 250620Z 19007KT 9999 -RA FEW035 12/11 Q1000 TEMPO 28015G25KT RA
Getting current METAR information for EGLL 250620Z AUTO 30010KT 9999 SCT015 OVC027 08/07 Q0999

Schedule Frequency

Route Map